Time;durP1;ratioP1;P1;durP2;ratioP2;P2;SDS_P1;SDS_P2;PMS_P1;PMS_P2;Temp;Humidity;BMP_temperature;BMP_pressure;BME280_temperature;BME280_humidity;BME280_pressure;Samples;Min_cycle;Max_cycle;Signal;HPM_P1;HPM_P2
2021/01/01 00:01:38;;;;;;;114.87;66.60;;;2.90;96.60;;;;;;5053016;28;20392;-79
2021/01/01 00:04:06;;;;;;;100.50;60.43;;;2.90;96.60;;;;;;5047993;28;20479;-78
2021/01/01 00:06:34;;;;;;;88.53;53.00;;;2.90;96.60;;;;;;5053151;28;20052;-78
2021/01/01 00:09:01;;;;;;;90.73;53.50;;;2.90;96.60;;;;;;5053077;28;20036;-78
2021/01/01 00:11:28;;;;;;;78.90;45.37;;;2.90;96.60;;;;;;5052410;28;20044;-80
2021/01/01 00:13:54;;;;;;;98.77;56.80;;;2.90;96.60;;;;;;5034064;28;20028;-77
2021/01/01 00:16:21;;;;;;;101.93;62.03;;;2.90;96.60;;;;;;5052177;28;20033;-78
2021/01/01 00:18:47;;;;;;;94.80;58.07;;;2.90;96.70;;;;;;5032434;28;20045;-78
2021/01/01 00:21:14;;;;;;;96.47;58.43;;;2.90;96.70;;;;;;5019330;28;20028;-78
2021/01/01 00:23:41;;;;;;;100.13;57.57;;;2.90;96.70;;;;;;5034875;28;20083;-78
2021/01/01 00:26:15;;;;;;;81.70;49.20;;;2.80;96.70;;;;;;5032451;28;20059;-78
2021/01/01 00:28:43;;;;;;;113.20;64.77;;;2.80;96.70;;;;;;5048973;28;20037;-79
2021/01/01 00:31:21;;;;;;;105.80;60.83;;;2.80;96.80;;;;;;5016448;28;20373;-78
2021/01/01 00:33:49;;;;;;;108.57;60.00;;;2.80;96.80;;;;;;5052475;28;20052;-79
2021/01/01 00:36:16;;;;;;;90.30;54.17;;;2.70;96.80;;;;;;5049800;28;20511;-78
2021/01/01 00:38:46;;;;;;;83.60;48.70;;;2.70;96.80;;;;;;5044926;28;20087;-78
2021/01/01 00:41:19;;;;;;;93.43;53.03;;;2.70;96.90;;;;;;5045750;28;20036;-78
2021/01/01 00:43:46;;;;;;;93.60;52.10;;;2.60;96.90;;;;;;5045132;28;20033;-78
2021/01/01 00:46:12;;;;;;;101.13;57.50;;;2.60;96.90;;;;;;5041442;28;20422;-78
2021/01/01 00:48:39;;;;;;;113.30;65.57;;;2.60;96.90;;;;;;5043629;28;20841;-78
2021/01/01 00:51:05;;;;;;;90.20;53.47;;;2.60;96.90;;;;;;5028660;28;20056;-78
2021/01/01 00:53:32;;;;;;;115.53;63.80;;;2.60;97.20;;;;;;5017003;28;20075;-78
2021/01/01 00:55:58;;;;;;;115.93;65.60;;;2.60;97.00;;;;;;5045332;28;20041;-78
2021/01/01 00:58:25;;;;;;;124.30;72.73;;;2.50;96.90;;;;;;5026628;28;20037;-78
2021/01/01 01:00:51;;;;;;;122.53;70.30;;;2.50;97.00;;;;;;5030848;28;20040;-78
2021/01/01 01:03:18;;;;;;;116.23;66.53;;;2.50;97.00;;;;;;5015669;28;20052;-79
2021/01/01 01:05:44;;;;;;;139.60;75.37;;;2.40;97.00;;;;;;5044820;28;20500;-78
2021/01/01 01:08:11;;;;;;;128.63;72.13;;;2.40;97.00;;;;;;5042971;28;20040;-79
2021/01/01 01:10:37;;;;;;;124.33;71.17;;;2.30;97.00;;;;;;5013788;28;20044;-78
2021/01/01 01:13:04;;;;;;;128.63;74.23;;;2.30;97.10;;;;;;5042578;28;20033;-78
2021/01/01 01:15:30;;;;;;;108.97;66.57;;;2.30;97.10;;;;;;5026017;28;20033;-78
2021/01/01 01:17:57;;;;;;;112.60;63.87;;;2.30;97.10;;;;;;5027369;28;20043;-78
2021/01/01 01:20:23;;;;;;;104.17;62.53;;;2.20;97.10;;;;;;5047403;28;20798;-78
2021/01/01 01:22:50;;;;;;;112.37;64.63;;;2.20;97.20;;;;;;5030101;28;20415;-78
2021/01/01 01:25:16;;;;;;;107.53;64.07;;;2.10;97.20;;;;;;5042999;28;20396;-78
2021/01/01 01:27:43;;;;;;;104.93;61.87;;;2.10;97.40;;;;;;5025667;28;20041;-78
2021/01/01 01:30:10;;;;;;;102.93;59.07;;;2.00;97.20;;;;;;5023171;28;20037;-78
2021/01/01 01:32:36;;;;;;;109.20;62.00;;;2.00;97.20;;;;;;5043221;28;20041;-78
2021/01/01 01:35:03;;;;;;;103.00;59.73;;;2.00;97.30;;;;;;5029398;28;20053;-78
2021/01/01 01:37:31;;;;;;;95.10;53.20;;;1.90;97.30;;;;;;5015807;28;20061;-78
2021/01/01 01:39:57;;;;;;;103.87;58.67;;;1.90;97.30;;;;;;5041687;28;20053;-77
2021/01/01 01:42:23;;;;;;;96.07;52.97;;;1.90;97.30;;;;;;5044968;28;20386;-77
2021/01/01 01:44:50;;;;;;;89.70;51.00;;;1.90;97.40;;;;;;5011236;28;20037;-78
2021/01/01 01:47:19;;;;;;;96.97;53.00;;;1.90;97.30;;;;;;5033870;28;20403;-78
2021/01/01 01:49:46;;;;;;;90.43;52.43;;;1.90;97.30;;;;;;5043525;28;20037;-78
2021/01/01 01:52:14;;;;;;;97.60;52.53;;;1.90;97.30;;;;;;5032372;28;20036;-77
2021/01/01 01:54:41;;;;;;;85.80;50.37;;;1.80;97.30;;;;;;5017023;28;20902;-77
2021/01/01 01:57:09;;;;;;;120.80;65.80;;;1.80;97.30;;;;;;5048377;28;20043;-77
2021/01/01 01:59:37;;;;;;;102.23;60.00;;;1.80;97.30;;;;;;5042880;28;20114;-77
2021/01/01 02:02:04;;;;;;;110.10;58.80;;;1.80;97.40;;;;;;5030684;28;20036;-77
2021/01/01 02:04:31;;;;;;;108.30;60.50;;;1.70;97.30;;;;;;5023711;28;20037;-77
2021/01/01 02:06:57;;;;;;;89.27;49.37;;;1.70;97.40;;;;;;4986028;28;20043;-77
2021/01/01 02:09:24;;;;;;;91.03;51.03;;;1.60;97.30;;;;;;5045227;28;20045;-77
2021/01/01 02:11:51;;;;;;;66.57;37.53;;;1.60;97.60;;;;;;5027317;28;20033;-77
2021/01/01 02:14:18;;;;;;;76.60;41.60;;;1.60;97.40;;;;;;5052050;28;20037;-77
2021/01/01 02:16:45;;;;;;;85.27;47.60;;;1.60;97.40;;;;;;5052294;28;20510;-78
2021/01/01 02:19:13;;;;;;;106.13;56.63;;;1.50;97.40;;;;;;5046641;28;20055;-77
2021/01/01 02:21:42;;;;;;;95.10;53.10;;;1.50;97.30;;;;;;5050590;28;20036;-77
2021/01/01 02:24:11;;;;;;;121.90;68.60;;;1.50;97.40;;;;;;5048357;28;20411;-77
2021/01/01 02:26:38;;;;;;;96.80;56.20;;;1.40;97.40;;;;;;5015211;28;20045;-77
2021/01/01 02:29:05;;;;;;;100.57;55.27;;;1.40;97.40;;;;;;5043890;28;20774;-76
2021/01/01 02:31:31;;;;;;;98.17;52.77;;;1.40;97.40;;;;;;5047895;28;20024;-77
2021/01/01 02:33:58;;;;;;;106.77;57.50;;;1.30;97.40;;;;;;5030335;28;20043;-76
2021/01/01 02:36:25;;;;;;;120.90;60.50;;;1.30;97.40;;;;;;5046946;28;21237;-77
2021/01/01 02:38:51;;;;;;;110.97;59.00;;;1.30;97.40;;;;;;5029448;28;20060;-77
2021/01/01 02:41:18;;;;;;;92.20;50.80;;;1.20;97.30;;;;;;5030401;28;20056;-78
2021/01/01 02:43:44;;;;;;;101.57;54.13;;;1.20;97.30;;;;;;5048005;28;20037;-77
2021/01/01 02:46:11;;;;;;;100.57;57.07;;;1.20;97.60;;;;;;5030509;28;20045;-77
2021/01/01 02:48:37;;;;;;;108.03;55.07;;;1.20;97.30;;;;;;5044084;28;20399;-76
2021/01/01 02:51:04;;;;;;;102.00;53.20;;;1.10;97.30;;;;;;5040661;28;20040;-76
2021/01/01 02:53:31;;;;;;;99.23;51.77;;;1.10;97.30;;;;;;5012856;28;20755;-77
2021/01/01 02:55:57;;;;;;;78.03;42.20;;;1.10;97.40;;;;;;5045024;28;20036;-77
2021/01/01 02:58:24;;;;;;;102.80;55.23;;;1.00;97.40;;;;;;5027812;28;20033;-77
2021/01/01 03:00:50;;;;;;;91.43;48.90;;;1.00;97.40;;;;;;5032158;28;20455;-77
2021/01/01 03:03:17;;;;;;;105.87;57.23;;;1.00;97.40;;;;;;5041723;28;20042;-77
2021/01/01 03:05:45;;;;;;;106.90;58.83;;;1.00;97.40;;;;;;5045196;28;20037;-77
2021/01/01 03:08:12;;;;;;;112.50;60.20;;;1.00;97.40;;;;;;5013522;28;20033;-77
2021/01/01 03:10:39;;;;;;;102.50;54.03;;;1.00;97.40;;;;;;5026713;28;20041;-77
2021/01/01 03:13:05;;;;;;;125.77;66.27;;;1.00;97.40;;;;;;5045163;28;20036;-76
2021/01/01 03:15:32;;;;;;;111.10;56.57;;;1.00;97.40;;;;;;5013376;28;20037;-76
2021/01/01 03:17:59;;;;;;;111.73;63.10;;;1.00;97.40;;;;;;5042758;28;20040;-76
2021/01/01 03:20:25;;;;;;;120.27;62.27;;;1.00;97.40;;;;;;5047635;28;20074;-76
2021/01/01 03:22:52;;;;;;;120.40;63.30;;;1.00;97.40;;;;;;5012186;28;20044;-76
2021/01/01 03:25:18;;;;;;;109.00;58.37;;;1.00;97.40;;;;;;5025826;28;20048;-76
2021/01/01 03:27:45;;;;;;;125.27;69.80;;;1.00;97.40;;;;;;5039163;28;20037;-76
2021/01/01 03:30:12;;;;;;;111.10;57.03;;;1.00;97.50;;;;;;5039844;28;20049;-76
2021/01/01 03:32:39;;;;;;;114.40;62.33;;;1.00;97.50;;;;;;5041101;28;20396;-77
2021/01/01 03:35:06;;;;;;;87.00;45.57;;;1.00;97.50;;;;;;5007984;28;20037;-77
2021/01/01 03:37:35;;;;;;;111.70;60.87;;;1.10;97.50;;;;;;5022728;28;20478;-76
2021/01/01 03:40:04;;;;;;;106.70;56.47;;;1.10;97.50;;;;;;5011352;28;20060;-77
2021/01/01 03:42:31;;;;;;;105.20;57.40;;;1.10;97.50;;;;;;5039392;28;20045;-77
2021/01/01 03:44:57;;;;;;;82.13;44.83;;;1.10;97.50;;;;;;5009808;28;20496;-77
2021/01/01 03:47:24;;;;;;;101.40;56.33;;;1.10;97.50;;;;;;5044552;28;20042;-77
2021/01/01 03:49:50;;;;;;;116.40;61.87;;;1.00;97.50;;;;;;5027463;28;20044;-77
2021/01/01 03:52:17;;;;;;;112.23;59.77;;;1.00;97.80;;;;;;5033613;28;20033;-77
2021/01/01 03:54:43;;;;;;;105.37;54.43;;;1.10;97.60;;;;;;5029587;28;20500;-77
2021/01/01 03:57:10;;;;;;;95.40;51.37;;;1.00;97.60;;;;;;5042309;28;20033;-77
2021/01/01 03:59:37;;;;;;;100.77;57.97;;;1.00;97.60;;;;;;5015064;28;20039;-77
2021/01/01 04:02:03;;;;;;;89.10;49.43;;;1.00;97.60;;;;;;5030482;28;20037;-77
2021/01/01 04:04:30;;;;;;;104.10;54.30;;;1.00;97.60;;;;;;5021872;28;20052;-77
2021/01/01 04:06:56;;;;;;;102.93;56.77;;;1.00;97.60;;;;;;5042270;28;20057;-77
2021/01/01 04:09:23;;;;;;;103.23;55.90;;;1.00;97.70;;;;;;5045514;28;20043;-77
2021/01/01 04:11:49;;;;;;;106.33;59.03;;;1.00;97.70;;;;;;5017260;28;20045;-77
2021/01/01 04:14:16;;;;;;;96.83;54.67;;;1.00;97.70;;;;;;5045637;28;20044;-77
2021/01/01 04:16:43;;;;;;;94.27;51.90;;;1.10;97.80;;;;;;5043758;28;20060;-77
2021/01/01 04:19:10;;;;;;;119.70;64.07;;;1.10;97.70;;;;;;5015330;28;20491;-77
2021/01/01 04:21:37;;;;;;;115.90;61.90;;;1.10;97.70;;;;;;5030216;28;20601;-77
2021/01/01 04:24:04;;;;;;;105.93;58.40;;;1.10;97.70;;;;;;5046688;28;20040;-77
2021/01/01 04:26:30;;;;;;;115.10;62.00;;;1.20;97.70;;;;;;5044870;28;20059;-77
2021/01/01 04:28:56;;;;;;;117.93;64.50;;;1.10;97.60;;;;;;5049236;28;20053;-77
2021/01/01 04:31:23;;;;;;;112.03;61.87;;;1.10;97.60;;;;;;5043344;28;20036;-77
2021/01/01 04:33:49;;;;;;;106.07;58.63;;;1.10;97.70;;;;;;5042413;28;20071;-77
2021/01/01 04:36:16;;;;;;;110.47;60.63;;;1.10;97.70;;;;;;5024212;28;20033;-77
2021/01/01 04:38:42;;;;;;;106.63;59.63;;;1.10;97.70;;;;;;5025093;28;20057;-77
2021/01/01 04:41:09;;;;;;;105.80;56.30;;;1.10;97.70;;;;;;5023565;28;20716;-77
2021/01/01 04:43:36;;;;;;;114.17;62.83;;;1.10;97.70;;;;;;5030161;28;21286;-77
2021/01/01 04:46:04;;;;;;;111.67;60.13;;;1.10;97.70;;;;;;5043355;28;20041;-77
2021/01/01 04:48:31;;;;;;;111.03;58.00;;;1.10;97.70;;;;;;5026158;28;20033;-77
2021/01/01 04:50:58;;;;;;;103.07;54.73;;;1.10;97.70;;;;;;5030715;28;20037;-78
2021/01/01 04:53:29;;;;;;;105.97;57.73;;;1.10;97.70;;;;;;5046064;28;20453;-77
2021/01/01 04:55:56;;;;;;;110.93;60.40;;;1.10;97.90;;;;;;5043716;28;20042;-77
2021/01/01 04:58:23;;;;;;;103.47;54.47;;;1.10;97.60;;;;;;5042882;28;20045;-77
2021/01/01 05:00:50;;;;;;;106.20;55.50;;;1.10;97.60;;;;;;5043270;28;20025;-77
2021/01/01 05:03:17;;;;;;;99.90;53.30;;;1.10;97.60;;;;;;5038248;28;20045;-77
2021/01/01 05:05:54;;;;;;;94.77;48.63;;;1.00;97.60;;;;;;5042953;28;20606;-77
2021/01/01 05:08:22;;;;;;;97.43;52.50;;;1.00;97.60;;;;;;5040341;28;21318;-77
2021/01/01 05:10:49;;;;;;;98.03;51.60;;;0.90;97.60;;;;;;5007062;28;20040;-77
2021/01/01 05:13:17;;;;;;;95.53;52.50;;;0.90;97.60;;;;;;5013733;28;20044;-77
2021/01/01 05:15:46;;;;;;;115.43;59.13;;;0.90;97.70;;;;;;5033047;28;20575;-77
2021/01/01 05:18:20;;;;;;;117.43;61.80;;;0.80;97.70;;;;;;5047992;28;20025;-76
2021/01/01 05:20:48;;;;;;;120.20;64.43;;;0.80;97.70;;;;;;5032264;28;20480;-76
2021/01/01 05:23:25;;;;;;;108.83;59.90;;;0.80;97.70;;;;;;5047061;28;20029;-76
2021/01/01 05:26:13;;;;;;;107.70;56.87;;;0.70;97.70;;;;;;5048884;28;20051;-76
2021/01/01 05:28:48;;;;;;;79.73;43.73;;;0.70;97.70;;;;;;5032822;28;20037;-77
2021/01/01 05:31:19;;;;;;;103.77;55.03;;;0.70;97.70;;;;;;5048755;28;20033;-77
2021/01/01 05:33:55;;;;;;;101.10;54.00;;;0.70;97.70;;;;;;5048567;28;20056;-77
2021/01/01 05:36:29;;;;;;;111.27;59.27;;;0.70;97.70;;;;;;5047324;28;20025;-77
2021/01/01 05:38:57;;;;;;;96.00;54.47;;;0.70;97.70;;;;;;5047402;28;20052;-77
2021/01/01 05:41:38;;;;;;;111.80;59.87;;;0.70;97.70;;;;;;5048484;28;20047;-77
2021/01/01 05:44:06;;;;;;;114.87;62.47;;;0.70;97.60;;;;;;5050981;28;20041;-77
2021/01/01 05:46:32;;;;;;;110.60;61.33;;;0.70;97.60;;;;;;5037933;28;20033;-77
2021/01/01 05:49:00;;;;;;;118.97;62.70;;;0.70;97.60;;;;;;5016720;28;20053;-76
2021/01/01 05:51:26;;;;;;;120.87;63.93;;;0.70;97.60;;;;;;5021584;28;20375;-77
2021/01/01 05:54:12;;;;;;;123.43;67.30;;;0.60;97.60;;;;;;5035053;28;20400;-77
2021/01/01 05:56:39;;;;;;;120.90;63.73;;;0.60;97.60;;;;;;5045607;28;20037;-77
2021/01/01 05:59:13;;;;;;;109.47;61.80;;;0.60;97.60;;;;;;5044645;28;20051;-77
2021/01/01 06:01:40;;;;;;;104.40;58.60;;;0.60;97.60;;;;;;5047792;28;20044;-77
2021/01/01 06:04:07;;;;;;;116.30;62.23;;;0.60;97.50;;;;;;5046894;28;20040;-77
2021/01/01 06:06:34;;;;;;;101.00;55.80;;;0.60;97.60;;;;;;5018050;28;20040;-77
2021/01/01 06:09:06;;;;;;;122.27;64.90;;;0.60;97.60;;;;;;5042089;28;20463;-77
2021/01/01 06:11:37;;;;;;;124.33;66.90;;;0.60;97.60;;;;;;5040611;28;20045;-76
2021/01/01 06:14:05;;;;;;;122.03;65.30;;;0.60;97.60;;;;;;5016570;28;20041;-76
2021/01/01 06:17:01;;;;;;;126.70;69.63;;;0.60;97.60;;;;;;5025902;28;20048;-76
2021/01/01 06:19:44;;;;;;;122.27;65.40;;;0.60;97.60;;;;;;5028354;28;20037;-76
2021/01/01 06:22:13;;;;;;;135.82;69.90;;;0.70;97.70;;;;;;5053243;28;20052;-77
2021/01/01 06:24:43;;;;;;;133.30;71.80;;;0.70;97.70;;;;;;5047250;28;20056;-77
2021/01/01 06:27:11;;;;;;;134.47;71.57;;;0.70;97.60;;;;;;5053649;28;20049;-77
2021/01/01 06:29:41;;;;;;;126.00;69.47;;;0.80;97.70;;;;;;5031690;28;20036;-77
2021/01/01 06:32:09;;;;;;;133.67;70.63;;;0.80;97.70;;;;;;5053523;28;20111;-77
2021/01/01 06:34:36;;;;;;;115.83;62.03;;;0.80;97.70;;;;;;5052614;28;20032;-77
2021/01/01 06:37:03;;;;;;;123.83;67.17;;;0.90;97.70;;;;;;5034996;28;20036;-77
2021/01/01 06:39:40;;;;;;;90.47;48.83;;;0.90;97.70;;;;;;5051652;28;20052;-77
2021/01/01 06:42:08;;;;;;;127.83;66.60;;;0.90;97.70;;;;;;5055479;28;20033;-77
2021/01/01 06:44:40;;;;;;;110.57;59.53;;;0.90;97.70;;;;;;5057250;28;20463;-77
2021/01/01 06:47:09;;;;;;;120.73;64.53;;;1.00;97.70;;;;;;5038161;28;20403;-77
2021/01/01 06:49:39;;;;;;;126.73;70.03;;;1.00;97.70;;;;;;5051049;28;20510;-77
2021/01/01 06:52:18;;;;;;;128.47;70.57;;;1.00;97.90;;;;;;5051911;28;20028;-77
2021/01/01 06:54:57;;;;;;;122.37;65.17;;;1.00;97.70;;;;;;5048592;28;20037;-77
2021/01/01 06:57:26;;;;;;;119.80;64.87;;;1.00;97.70;;;;;;5048346;28;20032;-77
2021/01/01 06:59:54;;;;;;;124.07;68.23;;;1.00;97.70;;;;;;5033933;28;20033;-77
2021/01/01 07:02:24;;;;;;;125.57;66.83;;;1.00;97.70;;;;;;5046627;28;20866;-77
2021/01/01 07:04:51;;;;;;;113.80;63.90;;;1.00;97.70;;;;;;5053066;28;20916;-76
2021/01/01 07:07:37;;;;;;;124.00;64.27;;;1.00;97.70;;;;;;5050559;28;20044;-77
2021/01/01 07:10:06;;;;;;;135.40;68.90;;;1.00;97.70;;;;;;5050420;28;20047;-76
2021/01/01 07:12:32;;;;;;;118.70;63.50;;;1.00;97.80;;;;;;5051575;28;20040;-77
2021/01/01 07:14:59;;;;;;;124.63;65.40;;;1.00;97.70;;;;;;5051653;28;20040;-77
2021/01/01 07:17:25;;;;;;;106.77;59.57;;;1.00;97.80;;;;;;5050412;28;20064;-77
2021/01/01 07:19:52;;;;;;;124.17;65.30;;;1.10;97.80;;;;;;5052201;28;20056;-76
2021/01/01 07:22:18;;;;;;;123.73;63.10;;;1.10;97.80;;;;;;5051762;28;20048;-77
2021/01/01 07:24:45;;;;;;;124.90;66.87;;;1.10;97.80;;;;;;5034259;28;20044;-77
2021/01/01 07:27:12;;;;;;;106.57;57.80;;;1.10;97.80;;;;;;5034237;28;20040;-77
2021/01/01 07:29:39;;;;;;;96.83;53.50;;;1.10;97.80;;;;;;5028699;28;20047;-77
2021/01/01 07:32:07;;;;;;;120.77;64.40;;;1.10;97.90;;;;;;5035785;28;20063;-77
2021/01/01 07:34:34;;;;;;;130.77;68.97;;;1.10;97.80;;;;;;5033357;28;20036;-77
2021/01/01 07:37:02;;;;;;;127.50;65.53;;;1.10;97.80;;;;;;5050392;28;20048;-77
2021/01/01 07:39:29;;;;;;;89.73;48.43;;;1.20;97.80;;;;;;5016020;28;20047;-77
2021/01/01 07:42:06;;;;;;;128.73;69.27;;;1.20;97.80;;;;;;5033267;28;20029;-77
2021/01/01 07:44:32;;;;;;;128.80;69.70;;;1.20;97.80;;;;;;5017740;28;20039;-77
2021/01/01 07:46:59;;;;;;;137.80;75.03;;;1.20;98.10;;;;;;5050816;28;20033;-77
2021/01/01 07:49:32;;;;;;;126.53;68.53;;;1.20;97.80;;;;;;5031097;28;20045;-77
2021/01/01 07:52:04;;;;;;;128.67;68.13;;;1.20;97.80;;;;;;5019405;28;20036;-77
2021/01/01 07:54:30;;;;;;;114.47;61.37;;;1.20;97.80;;;;;;5034948;28;20064;-76
2021/01/01 07:57:05;;;;;;;114.47;62.67;;;1.20;97.90;;;;;;5034712;28;20048;-77
2021/01/01 07:59:35;;;;;;;130.93;68.47;;;1.20;97.90;;;;;;5030395;28;20051;-77
2021/01/01 08:02:02;;;;;;;141.37;75.07;;;1.20;97.90;;;;;;5047827;28;20047;-76
2021/01/01 08:04:29;;;;;;;124.07;63.97;;;1.20;97.90;;;;;;5052412;28;20033;-77
2021/01/01 08:06:56;;;;;;;115.30;59.27;;;1.30;97.90;;;;;;5036407;28;20043;-77
2021/01/01 08:09:22;;;;;;;145.93;76.50;;;1.30;97.90;;;;;;5029042;28;20044;-77
2021/01/01 08:11:49;;;;;;;117.67;62.40;;;1.30;97.90;;;;;;5048254;28;20041;-77
2021/01/01 08:14:20;;;;;;;109.67;60.33;;;1.30;97.90;;;;;;5048423;28;20039;-77
2021/01/01 08:16:46;;;;;;;98.93;52.70;;;1.40;97.90;;;;;;5052604;28;20404;-77
2021/01/01 08:19:22;;;;;;;121.87;64.90;;;1.40;97.90;;;;;;5046435;28;20318;-77
2021/01/01 08:22:03;;;;;;;137.63;72.20;;;1.50;97.90;;;;;;5036078;28;20098;-77
2021/01/01 08:24:34;;;;;;;117.33;61.10;;;1.50;97.90;;;;;;5031511;28;20051;-77
2021/01/01 08:27:01;;;;;;;157.50;80.83;;;1.60;97.90;;;;;;5054884;28;20479;-77
2021/01/01 08:29:28;;;;;;;159.23;78.47;;;1.60;97.80;;;;;;5052526;28;20051;-77
2021/01/01 08:31:58;;;;;;;144.00;76.93;;;1.70;97.80;;;;;;5032281;28;20510;-77
2021/01/01 08:34:25;;;;;;;138.27;74.27;;;1.70;97.80;;;;;;5054767;28;20029;-77
2021/01/01 08:36:52;;;;;;;123.40;64.57;;;1.80;97.80;;;;;;5031104;28;20040;-77
2021/01/01 08:39:23;;;;;;;133.33;70.30;;;1.80;97.70;;;;;;5032250;28;20055;-78
2021/01/01 08:41:50;;;;;;;130.00;70.73;;;1.90;97.70;;;;;;5046831;28;20531;-77
2021/01/01 08:44:17;;;;;;;128.77;67.07;;;1.90;97.70;;;;;;5034256;28;20040;-78
2021/01/01 08:46:44;;;;;;;133.53;69.87;;;2.00;97.70;;;;;;5049004;28;20044;-77
2021/01/01 08:49:21;;;;;;;121.87;59.63;;;2.00;97.70;;;;;;5048439;28;21148;-77
2021/01/01 08:51:49;;;;;;;140.03;69.83;;;2.00;97.70;;;;;;5054737;28;20051;-77
2021/01/01 08:54:27;;;;;;;125.13;64.33;;;2.10;97.70;;;;;;5050665;28;20037;-77
2021/01/01 08:56:58;;;;;;;138.47;70.03;;;2.10;97.60;;;;;;5049666;28;20057;-77
2021/01/01 08:59:26;;;;;;;118.70;62.17;;;2.20;97.70;;;;;;5053047;28;20052;-77
2021/01/01 09:01:54;;;;;;;126.80;67.07;;;2.20;97.70;;;;;;5052613;28;20053;-77
2021/01/01 09:04:25;;;;;;;120.90;62.40;;;2.30;97.70;;;;;;5022202;28;20761;-76
2021/01/01 09:06:57;;;;;;;121.77;61.57;;;2.30;97.70;;;;;;5055726;28;20033;-78
2021/01/01 09:09:32;;;;;;;127.85;62.83;;;2.40;97.70;;;;;;5051798;28;20056;-76
2021/01/01 09:12:14;;;;;;;114.43;60.53;;;2.40;97.70;;;;;;5035095;28;20041;-77
2021/01/01 09:14:54;;;;;;;128.63;60.20;;;2.40;97.60;;;;;;5039135;28;20052;-77
2021/01/01 09:17:27;;;;;;;109.60;54.70;;;2.50;97.60;;;;;;5053120;28;20033;-76
2021/01/01 09:20:08;;;;;;;111.50;57.75;;;2.50;97.60;;;;;;5051097;28;20075;-76
2021/01/01 09:22:37;;;;;;;91.77;46.83;;;2.60;97.60;;;;;;5037345;28;20044;-76
2021/01/01 09:25:24;;;;;;;107.13;53.77;;;2.70;97.70;;;;;;5055120;28;20059;-76
2021/01/01 09:27:52;;;;;;;93.70;47.90;;;2.70;97.60;;;;;;5057061;28;20056;-76
2021/01/01 09:30:20;;;;;;;97.90;49.73;;;2.80;97.60;;;;;;5047918;28;20029;-76
2021/01/01 09:32:50;;;;;;;100.47;50.27;;;2.80;97.60;;;;;;5050370;28;20041;-76
2021/01/01 09:35:17;;;;;;;95.37;50.03;;;2.80;97.60;;;;;;5050898;28;20044;-76
2021/01/01 09:37:49;;;;;;;80.07;43.23;;;2.80;97.60;;;;;;5051587;28;20504;-76
2021/01/01 09:40:17;;;;;;;85.97;42.67;;;2.80;97.60;;;;;;5035107;28;20048;-76
2021/01/01 09:42:44;;;;;;;87.27;44.83;;;2.80;97.70;;;;;;5049952;28;20037;-76
2021/01/01 09:45:11;;;;;;;89.00;47.77;;;2.90;97.70;;;;;;5016817;28;20025;-75
2021/01/01 09:47:38;;;;;;;83.30;43.13;;;3.00;97.70;;;;;;5052289;28;20036;-75
2021/01/01 09:50:06;;;;;;;78.80;42.97;;;3.10;97.70;;;;;;5045937;28;20045;-76
2021/01/01 09:52:33;;;;;;;77.10;40.77;;;3.20;97.70;;;;;;5056802;28;20498;-76
2021/01/01 09:54:59;;;;;;;91.10;45.67;;;3.40;97.70;;;;;;5034913;28;20036;-76
2021/01/01 09:57:27;;;;;;;83.30;43.33;;;3.50;97.60;;;;;;5034748;28;20056;-76
2021/01/01 09:59:54;;;;;;;91.57;43.50;;;3.50;97.50;;;;;;5031828;28;20037;-76
2021/01/01 10:02:20;;;;;;;79.17;43.27;;;3.60;97.50;;;;;;5032062;28;20427;-76
2021/01/01 10:04:47;;;;;;;76.87;42.97;;;3.60;97.40;;;;;;5013488;28;20057;-75
2021/01/01 10:07:15;;;;;;;81.50;43.90;;;3.70;97.40;;;;;;5050107;28;20041;-76
2021/01/01 10:09:45;;;;;;;72.53;40.20;;;3.70;97.40;;;;;;5050752;28;20053;-76
2021/01/01 10:12:13;;;;;;;73.17;39.60;;;3.80;97.40;;;;;;5052039;28;20045;-75
2021/01/01 10:14:40;;;;;;;66.30;36.97;;;3.80;97.40;;;;;;5035454;28;20977;-76
2021/01/01 10:17:07;;;;;;;56.40;32.07;;;3.80;97.30;;;;;;5059512;28;20509;-76
2021/01/01 10:19:33;;;;;;;59.53;32.03;;;3.80;97.40;;;;;;5046599;28;20243;-76
2021/01/01 10:22:00;;;;;;;55.00;31.30;;;3.80;97.40;;;;;;5048048;28;20041;-76
2021/01/01 10:24:26;;;;;;;54.75;30.80;;;3.80;97.50;;;;;;5039714;28;20036;-77
2021/01/01 10:26:53;;;;;;;53.47;30.33;;;3.90;97.50;;;;;;5052359;28;20043;-76
2021/01/01 10:29:20;;;;;;;44.97;26.43;;;3.90;97.60;;;;;;5033996;28;20045;-76
2021/01/01 10:31:47;;;;;;;43.77;25.80;;;3.90;97.60;;;;;;5012882;28;20487;-77
2021/01/01 10:34:14;;;;;;;46.30;27.83;;;4.00;97.90;;;;;;5037412;28;20036;-76
2021/01/01 10:36:41;;;;;;;44.57;26.77;;;4.20;98.10;;;;;;5049580;28;20847;-77
2021/01/01 10:39:08;;;;;;;43.53;26.43;;;4.40;98.10;;;;;;5046401;28;20049;-77
2021/01/01 10:41:36;;;;;;;40.70;24.83;;;4.50;98.00;;;;;;5053524;28;20037;-76
2021/01/01 10:44:06;;;;;;;38.40;23.85;;;4.60;98.00;;;;;;5032858;28;20534;-77
2021/01/01 10:46:32;;;;;;;41.30;24.95;;;4.70;97.90;;;;;;5050378;28;20036;-76
2021/01/01 10:48:59;;;;;;;38.33;22.63;;;4.80;97.80;;;;;;5046827;28;20061;-77
2021/01/01 10:51:26;;;;;;;39.95;23.55;;;4.90;97.80;;;;;;5049412;28;20041;-77
2021/01/01 10:53:53;;;;;;;41.38;24.77;;;5.00;97.80;;;;;;5001955;28;20037;-76
2021/01/01 10:56:24;;;;;;;42.90;26.23;;;5.10;97.70;;;;;;5051289;28;20037;-76
2021/01/01 10:58:50;;;;;;;41.38;25.30;;;5.30;97.60;;;;;;5032988;28;20064;-77
2021/01/01 11:01:22;;;;;;;43.05;24.65;;;5.40;97.40;;;;;;5031931;28;20468;-79
2021/01/01 11:03:49;;;;;;;43.83;25.42;;;5.50;97.30;;;;;;5049274;28;20076;-77
2021/01/01 11:06:16;;;;;;;30.05;20.17;;;5.60;97.20;;;;;;5042666;28;20426;-78
2021/01/01 11:08:44;;;;;;;38.33;23.88;;;5.70;97.20;;;;;;5028737;28;20040;-76
2021/01/01 11:11:12;;;;;;;34.33;22.17;;;5.80;97.40;;;;;;4998183;28;20044;-81
2021/01/01 11:13:46;;;;;;;37.47;21.90;;;5.80;97.00;;;;;;4993829;28;20037;-79
2021/01/01 12:22:41;;;;;;;26.08;15.95;;;6.10;96.20;;;;;;5051011;28;20040;-79
2021/01/01 12:25:09;;;;;;;21.77;15.18;;;6.20;96.20;;;;;;5047296;28;20044;-78
2021/01/01 12:27:37;;;;;;;24.02;14.63;;;6.20;96.20;;;;;;5047080;28;20537;-78
2021/01/01 12:30:06;;;;;;;23.48;14.88;;;6.20;96.10;;;;;;5027715;28;20504;-78
2021/01/01 12:32:33;;;;;;;21.17;13.73;;;6.30;96.10;;;;;;5049212;28;20487;-77
2021/01/01 12:35:01;;;;;;;24.40;14.77;;;6.30;96.10;;;;;;5054101;28;20045;-77
2021/01/01 12:37:27;;;;;;;21.17;13.23;;;6.30;96.00;;;;;;5034107;28;20028;-78
2021/01/01 12:39:54;;;;;;;21.98;14.48;;;6.40;96.00;;;;;;5032000;28;20045;-78
2021/01/01 12:42:20;;;;;;;20.02;12.82;;;6.50;96.00;;;;;;5034428;28;20032;-78
2021/01/01 12:44:47;;;;;;;21.45;13.30;;;6.50;96.00;;;;;;5052685;28;20044;-77
2021/01/01 12:47:14;;;;;;;20.52;13.80;;;6.50;95.90;;;;;;5047558;28;20056;-77
2021/01/01 12:49:42;;;;;;;19.05;12.02;;;6.50;95.90;;;;;;5045057;28;20064;-78
2021/01/01 12:52:09;;;;;;;23.27;13.82;;;6.50;95.90;;;;;;5050597;28;20047;-78
2021/01/01 12:54:35;;;;;;;20.25;12.88;;;6.50;95.80;;;;;;5034029;28;20037;-78
2021/01/01 12:57:02;;;;;;;19.15;12.63;;;6.50;95.80;;;;;;5018934;28;20037;-78
2021/01/01 12:59:29;;;;;;;19.20;12.57;;;6.50;95.80;;;;;;5051120;28;20076;-77
2021/01/01 13:01:55;;;;;;;20.05;13.48;;;6.50;95.80;;;;;;5054855;28;20051;-77
2021/01/01 13:04:22;;;;;;;17.45;11.80;;;6.50;95.80;;;;;;5049945;28;20028;-77
2021/01/01 13:06:50;;;;;;;17.35;12.10;;;6.50;95.80;;;;;;5051814;28;20040;-77
2021/01/01 13:09:17;;;;;;;18.05;12.30;;;6.50;95.70;;;;;;5048361;28;20052;-77
2021/01/01 13:11:46;;;;;;;18.73;11.75;;;6.50;95.70;;;;;;5034895;28;20775;-77
2021/01/01 13:14:14;;;;;;;18.38;11.90;;;6.50;95.70;;;;;;5035424;28;20610;-77
2021/01/01 13:16:42;;;;;;;18.70;12.30;;;6.50;95.70;;;;;;5031786;28;20056;-78
2021/01/01 13:19:09;;;;;;;20.52;12.88;;;6.60;95.70;;;;;;5033824;28;20041;-77
2021/01/01 13:21:37;;;;;;;19.65;13.68;;;6.60;95.70;;;;;;5054255;28;20055;-78
2021/01/01 13:24:04;;;;;;;19.73;11.90;;;6.70;95.70;;;;;;5048564;28;20036;-77
2021/01/01 13:26:32;;;;;;;14.35;10.00;;;6.80;95.70;;;;;;5055252;28;20025;-77
2021/01/01 13:28:59;;;;;;;17.02;11.57;;;6.80;95.50;;;;;;5022272;28;20056;-78
2021/01/01 13:31:37;;;;;;;16.17;11.15;;;6.80;95.50;;;;;;5027253;28;20037;-78
2021/01/01 13:34:08;;;;;;;17.48;11.90;;;6.80;95.40;;;;;;5048036;28;20633;-78
2021/01/01 13:36:34;;;;;;;16.92;11.45;;;6.70;95.40;;;;;;5048262;28;20036;-78
2021/01/01 13:39:03;;;;;;;15.38;9.77;;;6.60;95.50;;;;;;5048843;28;20147;-79
2021/01/01 13:41:29;;;;;;;18.20;11.30;;;6.50;95.60;;;;;;5023139;28;20493;-78
2021/01/01 13:43:57;;;;;;;15.50;11.20;;;6.50;95.70;;;;;;5053847;28;20056;-78